createdAt,value
2019-03-23T00:01:40.741Z,101311.86
2019-03-23T00:04:08.746Z,101312.62
2019-03-23T00:06:36.881Z,101310.16
2019-03-23T00:09:05.312Z,101312.61
2019-03-23T00:11:33.552Z,101307.09
2019-03-23T00:14:01.601Z,101299.57
2019-03-23T00:16:38.481Z,101293.16
2019-03-23T00:19:06.496Z,101290.07
2019-03-23T00:21:37.535Z,101287.45
2019-03-23T00:24:12.980Z,101283.97
2019-03-23T00:26:55.285Z,101285.63
2019-03-23T00:29:43.356Z,101276.30
2019-03-23T00:32:18.955Z,101273.56
2019-03-23T00:34:58.905Z,101276.55
2019-03-23T00:38:01.096Z,101271.13
2019-03-23T00:40:37.830Z,101274.73
2019-03-23T00:45:54.590Z,101271.59
2019-03-23T00:48:42.670Z,101267.64
2019-03-23T00:51:03.695Z,101278.43
2019-03-23T00:53:39.215Z,101271.36
2019-03-23T00:56:37.080Z,101275.67
2019-03-23T00:59:00.991Z,101276.00
2019-03-23T01:01:35.266Z,101271.82
2019-03-23T01:04:16.550Z,101264.89
2019-03-23T01:06:52.398Z,101265.58
2019-03-23T01:09:35.574Z,101259.61
2019-03-23T01:12:08.480Z,101267.61
2019-03-23T01:14:41.390Z,101265.46
2019-03-23T01:17:12.790Z,101271.08
2019-03-23T01:19:43.830Z,101266.39
2019-03-23T01:22:33.035Z,101271.91
2019-03-23T01:24:59.161Z,101266.28
2019-03-23T01:27:29.218Z,101261.12
2019-03-23T01:30:05.136Z,101269.50
2019-03-23T01:32:36.375Z,101271.60
2019-03-23T01:35:24.046Z,101272.86
2019-03-23T01:37:45.725Z,101288.08
2019-03-23T01:40:58.065Z,101289.12
2019-03-23T01:43:31.427Z,101280.66
2019-03-23T01:46:09.345Z,101283.98
2019-03-23T01:48:48.225Z,101288.45
2019-03-23T01:51:40.575Z,101306.47
2019-03-23T01:54:22.580Z,101293.96
2019-03-23T01:57:00.725Z,101303.95
2019-03-23T01:59:39.525Z,101312.47
2019-03-23T02:02:23.713Z,101311.84
2019-03-23T02:04:59.369Z,101312.02
2019-03-23T02:07:37.050Z,101306.86
2019-03-23T02:10:20.656Z,101304.80
2019-03-23T02:13:04.005Z,101305.47
2019-03-23T02:15:26.507Z,101308.55
2019-03-23T02:18:36.110Z,101302.62
2019-03-23T02:21:13.545Z,101300.94
2019-03-23T02:23:46.320Z,101304.41
2019-03-23T02:26:27.375Z,101314.83
2019-03-23T02:29:21.440Z,101301.89
2019-03-23T02:31:56.101Z,101296.84
2019-03-23T02:34:34.626Z,101297.03
2019-03-23T02:37:09.995Z,101308.11
2019-03-23T02:40:10.887Z,101308.86
2019-03-23T02:42:54.812Z,101314.87
2019-03-23T02:47:38.447Z,101316.16
2019-03-23T02:48:54.461Z,101317.21
2019-03-23T02:51:28.458Z,101323.66
2019-03-23T02:54:22.581Z,101330.48
2019-03-23T02:57:13.335Z,101334.41
2019-03-23T03:00:12.766Z,101339.75
2019-03-23T03:03:16.476Z,101344.16
2019-03-23T03:08:41.449Z,101345.95
2019-03-23T03:11:41.846Z,101357.05
2019-03-23T03:17:48.020Z,101365.41
2019-03-23T03:21:04.390Z,101366.33
2019-03-23T03:24:26.370Z,101367.93
2019-03-23T03:28:04.459Z,101375.22
2019-03-23T03:29:30.206Z,101376.81
2019-03-23T03:32:19.358Z,101374.94
2019-03-23T03:34:56.528Z,101385.17
2019-03-23T03:37:34.735Z,101385.36
2019-03-23T03:40:22.336Z,101384.24
2019-03-23T03:42:55.263Z,101390.25
2019-03-23T03:45:29.965Z,101384.73
2019-03-23T03:47:59.832Z,101395.03
2019-03-23T03:50:30.901Z,101396.64
2019-03-23T03:53:03.814Z,101399.33
2019-03-23T03:55:36.778Z,101400.64
2019-03-23T03:58:16.229Z,101401.86
2019-03-23T04:00:53.590Z,101398.58
2019-03-23T04:03:31.550Z,101389.67
2019-03-23T04:06:22.615Z,101388.80
2019-03-23T04:09:01.563Z,101391.90
2019-03-23T04:11:38.523Z,101405.41
2019-03-23T04:14:32.086Z,101399.27
2019-03-23T04:16:57.066Z,101408.06
2019-03-23T04:19:38.900Z,101414.88
2019-03-23T04:22:29.518Z,101410.00
2019-03-23T04:25:08.521Z,101410.94
2019-03-23T04:27:42.017Z,101403.43
2019-03-23T04:30:45.195Z,101404.78
2019-03-23T04:32:49.171Z,101402.52
2019-03-23T04:35:21.690Z,101406.37
2019-03-23T04:37:57.602Z,101425.81
2019-03-23T04:40:29.570Z,101422.06
2019-03-23T04:43:39.981Z,101423.64
2019-03-23T04:45:54.112Z,101428.81
2019-03-23T04:48:27.612Z,101428.81
2019-03-23T04:51:02.820Z,101441.44
2019-03-23T04:53:42.004Z,101456.28
2019-03-23T04:56:17.726Z,101465.19
2019-03-23T04:58:52.010Z,101471.41
2019-03-23T05:01:25.397Z,101473.63
2019-03-23T05:04:01.137Z,101478.67
2019-03-23T05:06:47.439Z,101473.61
2019-03-23T05:09:09.130Z,101481.73
2019-03-23T05:13:16.628Z,101481.58
2019-03-23T05:14:44.529Z,101480.28
2019-03-23T05:17:20.770Z,101474.47
2019-03-23T05:19:53.272Z,101478.74
2019-03-23T05:22:31.047Z,101485.50
2019-03-23T05:25:18.190Z,101482.11
2019-03-23T05:28:04.542Z,101480.91
2019-03-23T05:30:28.827Z,101486.68
2019-03-23T05:33:23.992Z,101488.59
2019-03-23T05:35:36.876Z,101487.98
2019-03-23T05:38:09.467Z,101475.86
2019-03-23T05:40:37.932Z,101481.95
2019-03-23T05:43:28.546Z,101481.02
2019-03-23T05:46:18.058Z,101483.38
2019-03-23T05:49:28.744Z,101499.53
2019-03-23T05:51:47.497Z,101501.13
2019-03-23T05:54:27.643Z,101500.84
2019-03-23T05:57:14.932Z,101501.61
2019-03-23T06:00:06.396Z,101507.50
2019-03-23T06:04:02.028Z,101510.44
2019-03-23T06:08:16.189Z,101527.17
2019-03-23T06:10:59.150Z,101543.48
2019-03-23T06:13:26.213Z,101546.05
2019-03-23T06:15:58.252Z,101548.95
2019-03-23T06:18:37.454Z,101547.41
2019-03-23T06:21:38.040Z,101552.20
2019-03-23T06:24:19.795Z,101555.24
2019-03-23T06:27:04.360Z,101557.84
2019-03-23T06:30:10.515Z,101567.27
2019-03-23T06:33:05.713Z,101570.05
2019-03-23T06:35:40.909Z,101578.89
2019-03-23T06:38:44.885Z,101584.81
2019-03-23T06:40:56.059Z,101585.91
2019-03-23T06:44:11.391Z,101590.89
2019-03-23T06:46:53.675Z,101593.73
2019-03-23T06:49:35.813Z,101598.69
2019-03-23T06:52:37.287Z,101594.30
2019-03-23T06:55:12.735Z,101607.14
2019-03-23T06:58:24.318Z,101606.92
2019-03-23T07:01:02.321Z,101606.52
2019-03-23T07:03:43.775Z,101602.69
2019-03-23T07:06:51.069Z,101601.84
2019-03-23T07:09:16.304Z,101613.16
2019-03-23T07:12:12.561Z,101610.59
2019-03-23T07:15:19.522Z,101620.10
2019-03-23T07:17:55.184Z,101623.94
2019-03-23T07:20:32.771Z,101618.01
2019-03-23T07:23:14.005Z,101625.33
2019-03-23T07:25:53.995Z,101626.59
2019-03-23T07:28:53.815Z,101630.42
2019-03-23T07:31:29.495Z,101625.19
2019-03-23T07:34:32.971Z,101627.55
2019-03-23T07:47:11.645Z,101636.33
2019-03-23T07:49:44.467Z,101640.51
2019-03-23T07:52:41.810Z,101639.74
2019-03-23T07:55:15.225Z,101639.42
2019-03-23T07:58:09.115Z,101639.70
2019-03-23T08:00:45.762Z,101634.09
2019-03-23T08:03:30.317Z,101642.48
2019-03-23T08:06:03.359Z,101640.08
2019-03-23T08:09:50.750Z,101644.41
2019-03-23T08:12:29.070Z,101639.77
2019-03-23T08:15:35.923Z,101638.08
2019-03-23T08:18:30.862Z,101648.39
2019-03-23T08:21:07.681Z,101644.01
2019-03-23T08:24:03.372Z,101647.30
2019-03-23T08:27:21.605Z,101658.41
2019-03-23T08:30:10.973Z,101654.05
2019-03-23T08:32:47.851Z,101658.05
2019-03-23T08:35:23.846Z,101658.88
2019-03-23T08:37:59.636Z,101653.22
2019-03-23T08:40:42.536Z,101665.00
2019-03-23T08:43:10.611Z,101658.25
2019-03-23T08:45:38.612Z,101657.20
2019-03-23T08:48:06.544Z,101661.70
2019-03-23T08:50:34.556Z,101660.08
2019-03-23T08:53:02.466Z,101667.46
2019-03-23T08:55:30.496Z,101670.15
2019-03-23T08:57:58.566Z,101671.48
2019-03-23T09:00:26.598Z,101669.30
2019-03-23T09:02:54.512Z,101670.62
2019-03-23T09:05:23.645Z,101670.18
2019-03-23T09:07:54.473Z,101671.86
2019-03-23T09:10:22.491Z,101672.17
2019-03-23T09:12:50.447Z,101664.01
2019-03-23T09:15:18.817Z,101666.69
2019-03-23T09:17:47.233Z,101663.24
2019-03-23T09:20:15.251Z,101672.86
2019-03-23T09:22:43.212Z,101662.25
2019-03-23T09:25:11.260Z,101661.91
2019-03-23T09:27:39.246Z,101661.14
2019-03-23T09:30:08.262Z,101662.83
2019-03-23T09:32:40.851Z,101667.20
2019-03-23T09:35:09.396Z,101666.02
2019-03-23T09:37:38.325Z,101672.38
2019-03-23T09:40:11.080Z,101673.63
2019-03-23T09:42:36.957Z,101681.63
2019-03-23T09:45:06.991Z,101692.81
2019-03-23T09:47:35.451Z,101695.38
2019-03-23T09:50:04.342Z,101695.48
2019-03-23T09:52:32.317Z,101686.13
2019-03-23T09:55:00.350Z,101689.06
2019-03-23T09:57:28.677Z,101697.56
2019-03-23T09:59:56.722Z,101691.25
2019-03-23T10:02:24.767Z,101692.31
2019-03-23T10:04:52.736Z,101699.48
2019-03-23T10:07:20.807Z,101692.47
2019-03-23T10:09:48.747Z,101700.18
2019-03-23T10:12:16.732Z,101703.64
2019-03-23T10:14:44.707Z,101701.84
2019-03-23T10:17:12.752Z,101698.89
2019-03-23T10:19:40.817Z,101698.47
2019-03-23T10:22:10.056Z,101702.36
2019-03-23T10:24:38.022Z,101700.02
2019-03-23T10:27:05.987Z,101693.72
2019-03-23T10:29:33.947Z,101689.70
2019-03-23T10:32:01.990Z,101680.39
2019-03-23T10:34:29.970Z,101677.66
2019-03-23T10:36:58.007Z,101684.88
2019-03-23T10:39:26.013Z,101685.34
2019-03-23T10:41:54.757Z,101688.84
2019-03-23T10:44:22.727Z,101684.25
2019-03-23T10:46:50.766Z,101678.80
2019-03-23T10:49:18.877Z,101680.83
2019-03-23T10:51:46.922Z,101679.67
2019-03-23T10:54:14.898Z,101683.54
2019-03-23T10:56:42.969Z,101676.55
2019-03-23T10:59:10.966Z,101689.56
2019-03-23T11:01:39.056Z,101682.75
2019-03-23T11:04:07.022Z,101682.03
2019-03-23T11:06:35.030Z,101674.00
2019-03-23T11:09:04.668Z,101675.62
2019-03-23T11:11:32.727Z,101673.36
2019-03-23T11:14:01.791Z,101680.59
2019-03-23T11:16:29.944Z,101675.00
2019-03-23T11:18:57.892Z,101676.00
2019-03-23T11:21:25.934Z,101681.14
2019-03-23T11:23:54.101Z,101685.04
2019-03-23T11:26:22.103Z,101692.80
2019-03-23T11:28:50.067Z,101685.07
2019-03-23T11:31:18.152Z,101683.92
2019-03-23T11:33:46.536Z,101692.42
2019-03-23T11:36:14.897Z,101695.13
2019-03-23T11:38:42.849Z,101692.31
2019-03-23T11:41:10.857Z,101691.48
2019-03-23T11:43:38.809Z,101687.16
2019-03-23T11:46:06.758Z,101695.16
2019-03-23T11:48:34.821Z,101706.13
2019-03-23T11:51:02.806Z,101693.59
2019-03-23T11:53:30.856Z,101687.84
2019-03-23T11:55:58.802Z,101691.29
2019-03-23T11:58:26.840Z,101696.52
2019-03-23T12:00:54.877Z,101694.39
2019-03-23T12:03:23.169Z,101696.88
2019-03-23T12:05:51.176Z,101706.00
2019-03-23T12:08:19.188Z,101692.91
2019-03-23T12:10:47.192Z,101690.81
2019-03-23T12:13:15.180Z,101691.03
2019-03-23T12:15:43.173Z,101695.16
2019-03-23T12:18:11.201Z,101688.45
2019-03-23T12:20:39.182Z,101691.16
2019-03-23T12:23:07.212Z,101689.94
2019-03-23T12:25:38.293Z,101678.91
2019-03-23T12:28:06.348Z,101680.59
2019-03-23T12:30:34.876Z,101684.72
2019-03-23T12:33:02.977Z,101680.69
2019-03-23T12:35:30.956Z,101688.90
2019-03-23T12:37:58.946Z,101693.94
2019-03-23T12:40:26.926Z,101688.81
2019-03-23T12:42:54.992Z,101691.48
2019-03-23T12:45:23.152Z,101686.14
2019-03-23T12:47:51.301Z,101689.34
2019-03-23T12:50:19.286Z,101681.16
2019-03-23T12:52:47.306Z,101682.60
2019-03-23T12:55:15.307Z,101684.59
2019-03-23T12:57:43.387Z,101683.97
2019-03-23T13:00:12.020Z,101680.22
2019-03-23T13:02:40.041Z,101673.50
2019-03-23T13:05:08.341Z,101675.29
2019-03-23T13:07:36.337Z,101668.81
2019-03-23T13:10:05.219Z,101665.78
2019-03-23T13:12:33.281Z,101671.41
2019-03-23T13:15:01.238Z,101675.83
2019-03-23T13:17:29.261Z,101669.44
2019-03-23T13:19:57.326Z,101672.12
2019-03-23T13:22:25.331Z,101669.00
2019-03-23T13:24:53.297Z,101678.52
2019-03-23T13:27:21.333Z,101674.92
2019-03-23T13:29:49.273Z,101678.98
2019-03-23T13:32:17.266Z,101681.84
2019-03-23T13:34:45.250Z,101673.44
2019-03-23T13:37:15.731Z,101668.42
2019-03-23T13:39:43.709Z,101670.09
2019-03-23T13:42:11.711Z,101670.97
2019-03-23T13:44:39.701Z,101667.83
2019-03-23T13:47:07.671Z,101668.91
2019-03-23T13:49:35.666Z,101670.47
2019-03-23T13:52:03.782Z,101672.85
2019-03-23T13:54:31.757Z,101678.51
2019-03-23T13:56:59.782Z,101675.62
2019-03-23T13:59:27.717Z,101666.30
2019-03-23T14:01:55.646Z,101672.03
2019-03-23T14:04:23.777Z,101679.22
2019-03-23T14:06:51.701Z,101679.22
2019-03-23T14:09:19.656Z,101681.37
2019-03-23T14:11:54.624Z,101679.18
2019-03-23T14:14:17.539Z,101681.37
2019-03-23T14:16:46.205Z,101677.97
2019-03-23T14:19:14.411Z,101675.84
2019-03-23T14:21:42.436Z,101669.97
2019-03-23T14:24:10.407Z,101674.10
2019-03-23T14:26:38.381Z,101676.77
2019-03-23T14:29:06.371Z,101670.84
2019-03-23T14:31:34.321Z,101674.59
2019-03-23T14:34:02.612Z,101672.83
2019-03-23T14:36:30.657Z,101678.55
2019-03-23T14:38:58.752Z,101673.50
2019-03-23T14:41:26.722Z,101678.45
2019-03-23T14:43:54.779Z,101673.35
2019-03-23T14:46:22.810Z,101671.34
2019-03-23T14:48:50.851Z,101672.42
2019-03-23T14:51:18.904Z,101672.83
2019-03-23T14:53:46.992Z,101680.12
2019-03-23T14:56:14.981Z,101687.56
2019-03-23T14:58:43.090Z,101685.88
2019-03-23T15:01:11.122Z,101682.30
2019-03-23T15:03:41.809Z,101690.69
2019-03-23T15:06:09.801Z,101687.44
2019-03-23T15:08:37.786Z,101683.86
2019-03-23T15:11:05.763Z,101681.70
2019-03-23T15:13:33.847Z,101683.60
2019-03-23T15:16:03.440Z,101685.82
2019-03-23T15:18:31.566Z,101683.24
2019-03-23T15:20:59.636Z,101686.34
2019-03-23T15:23:27.591Z,101684.08
2019-03-23T15:25:55.691Z,101688.23
2019-03-23T15:28:23.776Z,101690.08
2019-03-23T15:30:51.766Z,101693.27
2019-03-23T15:33:19.791Z,101688.20
2019-03-23T15:35:48.899Z,101688.52
2019-03-23T15:38:17.046Z,101696.31
2019-03-23T15:40:45.046Z,101690.64
2019-03-23T15:43:15.902Z,101690.50
2019-03-23T15:45:43.976Z,101694.39
2019-03-23T15:48:11.966Z,101697.42
2019-03-23T15:50:40.068Z,101693.94
2019-03-23T15:53:08.066Z,101698.96
2019-03-23T15:55:36.092Z,101696.15
2019-03-23T15:58:07.412Z,101697.16
2019-03-23T16:00:35.582Z,101692.58
2019-03-23T16:03:03.744Z,101701.77
2019-03-23T16:05:31.808Z,101693.95
2019-03-23T16:07:59.911Z,101696.37
2019-03-23T16:10:28.020Z,101696.90
2019-03-23T16:12:56.214Z,101698.83
2019-03-23T16:15:24.290Z,101700.28
2019-03-23T16:17:52.360Z,101699.01
2019-03-23T16:20:20.419Z,101700.59
2019-03-23T16:22:48.455Z,101701.81
2019-03-23T16:25:16.709Z,101703.98
2019-03-23T16:27:44.781Z,101705.20
2019-03-23T16:30:15.194Z,101699.44
2019-03-23T16:32:43.270Z,101702.92
2019-03-23T16:35:12.018Z,101702.08
2019-03-23T16:37:41.454Z,101695.88
2019-03-23T16:40:09.959Z,101698.55
2019-03-23T16:42:45.211Z,101699.17
2019-03-23T16:45:09.788Z,101699.70
2019-03-23T16:47:38.143Z,101694.58
2019-03-23T16:50:13.659Z,101696.11
2019-03-23T16:52:41.857Z,101709.43
2019-03-23T16:55:10.654Z,101702.66
2019-03-23T16:57:38.784Z,101698.48
2019-03-23T17:00:07.520Z,101706.94
2019-03-23T17:02:36.019Z,101709.04
2019-03-23T17:05:07.707Z,101709.04
2019-03-23T17:07:36.009Z,101703.53
2019-03-23T17:10:05.130Z,101705.06
2019-03-23T17:12:37.599Z,101707.16
2019-03-23T17:15:07.400Z,101708.39
2019-03-23T17:17:35.814Z,101708.49
2019-03-23T17:20:05.812Z,101706.11
2019-03-23T17:22:34.166Z,101705.36
2019-03-23T17:25:02.705Z,101703.61
2019-03-23T17:27:30.980Z,101713.30
2019-03-23T17:30:01.597Z,101718.03
2019-03-23T17:32:30.030Z,101723.88
2019-03-23T17:34:58.624Z,101727.83
2019-03-23T17:37:27.172Z,101728.67
2019-03-23T17:39:55.619Z,101725.84
2019-03-23T17:42:23.896Z,101729.25
2019-03-23T17:44:53.425Z,101728.78
2019-03-23T17:47:23.699Z,101734.06
2019-03-23T17:49:52.041Z,101737.17
2019-03-23T17:52:23.905Z,101734.05
2019-03-23T17:54:52.184Z,101738.74
2019-03-23T17:57:23.002Z,101739.48
2019-03-23T17:59:50.987Z,101735.84
2019-03-23T18:02:19.514Z,101747.86
2019-03-23T18:04:47.945Z,101738.65
2019-03-23T18:07:16.284Z,101746.27
2019-03-23T18:09:44.688Z,101748.42
2019-03-23T18:12:13.264Z,101753.22
2019-03-23T18:14:41.919Z,101751.61
2019-03-23T18:17:10.475Z,101749.37
2019-03-23T18:19:39.089Z,101751.92
2019-03-23T18:22:18.280Z,101750.39
2019-03-23T18:24:48.029Z,101760.44
2019-03-23T18:27:18.952Z,101755.56
2019-03-23T18:29:48.714Z,101757.53
2019-03-23T18:32:37.685Z,101758.65
2019-03-23T18:35:06.979Z,101760.97
2019-03-23T18:37:35.873Z,101764.09
2019-03-23T18:40:08.057Z,101770.35
2019-03-23T18:42:36.924Z,101769.41
2019-03-23T18:45:06.154Z,101769.17
2019-03-23T18:47:37.177Z,101770.93
2019-03-23T18:50:42.936Z,101775.27
2019-03-23T18:53:13.034Z,101779.84
2019-03-23T18:55:43.354Z,101781.34
2019-03-23T18:58:12.437Z,101776.56
2019-03-23T19:00:42.343Z,101775.83
2019-03-23T19:03:12.748Z,101781.16
2019-03-23T19:05:47.086Z,101782.59
2019-03-23T19:08:17.250Z,101782.98
2019-03-23T19:10:46.098Z,101783.72
2019-03-23T19:13:18.484Z,101787.28
2019-03-23T19:15:47.121Z,101797.56
2019-03-23T19:18:15.735Z,101801.15
2019-03-23T19:20:44.345Z,101804.12
2019-03-23T19:23:12.885Z,101814.00
2019-03-23T19:25:41.517Z,101808.03
2019-03-23T19:28:10.355Z,101805.81
2019-03-23T19:30:38.815Z,101810.31
2019-03-23T19:33:07.480Z,101810.49
2019-03-23T19:35:35.924Z,101805.11
2019-03-23T19:38:04.847Z,101804.59
2019-03-23T19:40:33.433Z,101806.52
2019-03-23T19:43:03.165Z,101810.13
2019-03-23T19:45:31.655Z,101810.36
2019-03-23T19:48:01.368Z,101802.03
2019-03-23T19:50:29.755Z,101801.73
2019-03-23T19:52:58.233Z,101810.99
2019-03-23T19:55:27.559Z,101812.98
2019-03-23T19:57:56.219Z,101809.05
2019-03-23T20:00:24.766Z,101809.89
2019-03-23T20:02:53.124Z,101811.34
2019-03-23T20:05:21.949Z,101807.73
2019-03-23T20:07:50.415Z,101813.02
2019-03-23T20:10:19.039Z,101813.16
2019-03-23T20:12:47.576Z,101815.67
2019-03-23T20:15:16.100Z,101813.99
2019-03-23T20:17:44.603Z,101814.53
2019-03-23T20:20:14.044Z,101821.16
2019-03-23T20:22:42.639Z,101822.00
2019-03-23T20:25:11.079Z,101817.68
2019-03-23T20:27:39.641Z,101819.22
2019-03-23T20:30:08.294Z,101820.66
2019-03-23T20:32:36.775Z,101819.34
2019-03-23T20:35:05.825Z,101818.66
2019-03-23T20:37:34.381Z,101822.22
2019-03-23T20:40:03.724Z,101818.11
2019-03-23T20:42:32.109Z,101824.50
2019-03-23T20:45:00.614Z,101817.94
2019-03-23T20:47:29.189Z,101816.42
2019-03-23T20:49:57.629Z,101818.20
2019-03-23T20:52:25.956Z,101816.97
2019-03-23T20:54:54.429Z,101820.19
2019-03-23T20:57:24.103Z,101816.42
2019-03-23T20:59:52.868Z,101817.91
2019-03-23T21:02:21.350Z,101820.91
2019-03-23T21:04:49.758Z,101814.98
2019-03-23T21:07:18.392Z,101825.80
2019-03-23T21:09:46.677Z,101824.96
2019-03-23T21:12:16.169Z,101825.88
2019-03-23T21:14:44.684Z,101826.72
2019-03-23T21:17:14.494Z,101823.42
2019-03-23T21:19:43.031Z,101824.16
2019-03-23T21:22:11.553Z,101824.80
2019-03-23T21:24:41.167Z,101826.39
2019-03-23T21:27:09.705Z,101819.60
2019-03-23T21:29:38.306Z,101818.97
2019-03-23T21:32:06.693Z,101820.93
2019-03-23T21:34:35.144Z,101822.68
2019-03-23T21:37:05.845Z,101818.55
2019-03-23T21:39:34.189Z,101811.27
2019-03-23T21:42:02.504Z,101813.05
2019-03-23T21:44:31.429Z,101806.81
2019-03-23T21:46:59.780Z,101812.97
2019-03-23T21:49:28.114Z,101807.47
2019-03-23T21:51:56.259Z,101811.16
2019-03-23T21:54:24.663Z,101804.91
2019-03-23T21:56:52.939Z,101801.35
2019-03-23T21:59:21.223Z,101798.41
2019-03-23T22:01:49.470Z,101792.70
2019-03-23T22:04:17.759Z,101790.33
2019-03-23T22:06:47.075Z,101796.94
2019-03-23T22:09:15.279Z,101792.98
2019-03-23T22:11:43.764Z,101794.08
2019-03-23T22:14:11.855Z,101804.69
2019-03-23T22:16:40.139Z,101796.48
2019-03-23T22:19:08.338Z,101786.48
2019-03-23T22:21:37.084Z,101789.77
2019-03-23T22:24:05.318Z,101792.89
2019-03-23T22:26:33.384Z,101787.80
2019-03-23T22:29:01.922Z,101792.87
2019-03-23T22:31:30.114Z,101794.47
2019-03-23T22:34:01.498Z,101793.71
2019-03-23T22:36:29.329Z,101798.19
2019-03-23T22:38:57.632Z,101802.64
2019-03-23T22:41:25.849Z,101801.33
2019-03-23T22:43:54.229Z,101809.59
2019-03-23T22:46:22.383Z,101798.80
2019-03-23T22:48:50.606Z,101796.09
2019-03-23T22:51:18.679Z,101792.80
2019-03-23T22:53:46.877Z,101791.55
2019-03-23T22:56:14.995Z,101794.83
2019-03-23T22:58:43.268Z,101788.02
2019-03-23T23:01:11.719Z,101782.97
2019-03-23T23:03:39.940Z,101783.22
2019-03-23T23:06:07.897Z,101779.06
2019-03-23T23:08:36.079Z,101780.97
2019-03-23T23:11:06.884Z,101784.16
2019-03-23T23:13:37.053Z,101778.70
2019-03-23T23:16:19.918Z,101777.66
2019-03-23T23:18:37.319Z,101775.16
2019-03-23T23:21:10.157Z,101770.06
2019-03-23T23:23:42.022Z,101766.69
2019-03-23T23:26:13.089Z,101765.11
2019-03-23T23:28:42.812Z,101770.34
2019-03-23T23:31:22.972Z,101768.11
2019-03-23T23:34:33.875Z,101762.36
2019-03-23T23:37:16.316Z,101758.61
2019-03-23T23:39:53.313Z,101752.86
2019-03-23T23:43:36.763Z,101749.52
2019-03-23T23:45:29.988Z,101758.33
2019-03-23T23:48:08.984Z,101753.75
2019-03-23T23:51:16.964Z,101757.75
2019-03-23T23:53:46.764Z,101750.28
2019-03-23T23:56:19.303Z,101752.13
2019-03-23T23:59:01.253Z,101754.97
